Date,TemperatureHighF,TemperatureAvgF,TemperatureLowF,DewpointHighF,DewpointAvgF,DewpointLowF,HumidityHigh,HumidityAvg,HumidityLow,PressureMaxIn,PressureMinIn,WindSpeedMaxMPH,WindSpeedAvgMPH,GustSpeedMaxMPH,PrecipitationSumIn
2013-11-1,72.0,63.5,52.0,60.0,54.1,45.6,96,73,48,29.80,29.64,18,3,18,0.09
2013-11-2,58.2,47.5,38.7,45.9,40.9,36.0,97,79,51,30.09,29.77,25,2,25,0.00
2013-11-3,54.9,44.0,31.9,39.0,36.1,30.3,95,76,48,30.41,30.08,13,2,13,0.00
2013-11-4,60.1,42.9,28.1,36.0,30.7,27.4,98,67,34,30.55,30.40,10,1,10,0.00
2013-11-5,64.1,45.2,31.3,36.2,30.9,22.2,92,62,22,30.58,30.42,8,1,8,0.00
2013-11-6,70.0,55.8,44.2,52.3,47.1,34.0,95,74,51,30.47,30.13,7,2,12,0.00
2013-11-7,57.6,48.3,36.9,52.5,43.7,30.7,98,84,68,30.25,30.02,23,3,23,0.06
2013-11-8,49.5,38.6,27.3,30.9,25.7,21.7,87,62,34,30.40,30.25,18,3,18,0.00
2013-11-9,55.1,37.4,22.6,33.7,27.4,21.1,95,72,34,30.44,30.30,8,0,8,0.00
2013-11-10,61.7,46.5,32.5,40.8,32.2,28.5,88,60,31,30.37,30.26,23,3,23,0.00
2013-11-11,66.8,41.1,23.7,32.9,27.7,22.2,96,66,22,30.40,30.22,6,0,6,0.00
2013-11-12,49.4,35.6,24.4,39.4,27.4,13.3,89,73,52,30.57,30.17,26,5,26,0.00
2013-11-13,38.7,26.4,19.3,20.4,17.1,13.9,88,69,45,30.67,30.56,16,2,18,0.00
2013-11-14,60.6,33.9,14.4,24.7,17.4,12.5,94,61,17,30.60,30.38,8,0,8,0.00
2013-11-15,44.4,35.3,24.1,41.6,30.4,18.8,98,84,50,30.42,30.24,6,0,6,0.13
2013-11-16,65.0,51.9,41.9,54.5,48.5,41.3,99,89,66,30.33,30.19,11,1,11,0.00
2013-11-17,62.8,58.9,56.6,57.8,55.3,52.2,97,88,77,30.21,29.87,16,3,16,0.23
2013-11-18,59.0,54.4,44.5,57.6,42.2,30.2,99,66,39,30.09,29.85,25,5,25,0.04
2013-11-19,50.2,41.5,35.3,30.4,27.1,23.0,79,57,36,30.27,30.09,14,3,15,0.00
2013-11-20,52.2,41.2,31.9,29.5,26.4,24.0,78,57,34,30.47,30.26,12,2,12,0.00
2013-11-21,53.7,44.2,32.8,51.9,39.9,26.0,98,85,65,30.53,30.41,7,1,7,0.02
2013-11-22,65.3,55.2,46.6,57.9,52.7,46.3,100,92,76,30.43,30.17,16,2,16,0.01
2013-11-23,55.4,44.1,30.9,53.6,40.0,20.9,97,86,63,30.32,30.14,23,5,23,0.00
2013-11-24,31.5,24.8,17.6,20.9,11.8,6.9,75,58,38,30.59,30.31,22,6,22,0.00
2013-11-25,40.9,27.7,14.8,28.7,13.1,6.7,87,59,24,30.62,30.37,8,1,8,0.00
2013-11-26,42.9,37.9,32.4,42.6,36.9,28.5,99,97,80,30.37,29.74,19,1,19,1.86
2013-11-27,40.6,28.9,22.9,39.5,25.7,15.4,97,88,71,30.32,29.72,24,8,24,0.02
2013-11-28,44.5,25.6,14.7,24.4,18.9,12.9,95,77,42,30.57,30.31,17,1,18,0.00
2013-11-29,51.3,29.7,17.4,29.8,22.8,15.9,96,80,41,30.68,30.55,9,1,9,0.00
2013-11-30,49.6,31.4,20.8,27.8,23.8,19.6,97,77,40,30.68,30.44,6,1,9,0.01